createdAt,value
2022-10-04T00:03:44.011Z,22.20
2022-10-04T00:09:09.612Z,29.40
2022-10-04T00:14:35.808Z,25.30
2022-10-04T00:19:50.265Z,24.90
2022-10-04T00:25:10.065Z,27.50
2022-10-04T00:30:19.745Z,29.00
2022-10-04T00:35:27.468Z,26.00
2022-10-04T00:40:34.131Z,27.00
2022-10-04T00:45:47.553Z,21.50
2022-10-04T00:51:04.156Z,24.90
2022-10-04T00:56:11.287Z,12.90
2022-10-04T01:01:13.131Z,23.00
2022-10-04T01:06:15.904Z,20.80
2022-10-04T01:11:41.518Z,23.70
2022-10-04T01:16:43.585Z,24.80
2022-10-04T01:21:47.251Z,25.50
2022-10-04T01:26:49.978Z,21.80
2022-10-04T01:32:00.626Z,29.70
2022-10-04T01:37:02.537Z,22.00
2022-10-04T01:42:14.480Z,30.30
2022-10-04T01:47:27.016Z,19.60
2022-10-04T01:52:49.018Z,22.60
2022-10-04T01:57:58.340Z,17.00
2022-10-04T02:03:34.615Z,24.40
2022-10-04T02:08:41.388Z,22.30
2022-10-04T02:13:45.799Z,24.10
2022-10-04T02:18:49.841Z,28.50
2022-10-04T02:23:53.289Z,21.10
2022-10-04T02:28:55.280Z,22.10
2022-10-04T02:34:00.135Z,25.30
2022-10-04T02:39:04.769Z,28.30
2022-10-04T02:44:42.219Z,21.50
2022-10-04T02:49:52.759Z,28.50
2022-10-04T02:55:10.708Z,19.50
2022-10-04T03:00:13.210Z,18.30
2022-10-04T03:05:15.453Z,19.30
2022-10-04T03:10:17.410Z,24.30
2022-10-04T03:15:20.596Z,22.30
2022-10-04T03:20:22.759Z,21.90
2022-10-04T03:25:30.326Z,15.80
2022-10-04T03:35:40.576Z,14.00
2022-10-04T03:40:51.555Z,19.80
2022-10-04T03:45:55.463Z,22.30
2022-10-04T03:50:58.777Z,27.20
2022-10-04T03:56:04.501Z,17.20
2022-10-04T04:01:25.897Z,17.20
2022-10-04T04:06:40.447Z,25.10
2022-10-04T04:11:44.418Z,12.90
2022-10-04T04:16:47.077Z,25.20
2022-10-04T04:21:50.175Z,17.10
2022-10-04T04:26:58.216Z,20.00
2022-10-04T04:32:16.806Z,18.30
2022-10-04T04:37:20.626Z,14.80
2022-10-04T04:42:31.867Z,25.10
2022-10-04T04:47:44.234Z,18.50
2022-10-04T04:52:55.698Z,16.10
2022-10-04T04:57:59.637Z,22.00
2022-10-04T05:03:25.542Z,24.70
2022-10-04T05:08:36.009Z,20.40
2022-10-04T05:14:09.103Z,18.30
2022-10-04T05:19:31.197Z,12.50
2022-10-04T05:24:40.905Z,21.70
2022-10-04T05:30:00.869Z,15.00
2022-10-04T05:35:02.825Z,17.90
2022-10-04T05:40:20.846Z,21.80
2022-10-04T05:50:42.219Z,18.60
2022-10-04T05:56:19.834Z,18.80
2022-10-04T06:01:34.356Z,21.10
2022-10-04T06:07:03.026Z,25.40
2022-10-04T06:12:20.224Z,17.20
2022-10-04T06:18:04.419Z,21.20
2022-10-04T06:23:21.452Z,16.90
2022-10-04T06:28:42.987Z,20.60
2022-10-04T06:33:45.090Z,20.20
2022-10-04T06:39:04.447Z,18.60
2022-10-04T06:44:09.342Z,13.80
2022-10-04T06:49:39.095Z,17.70
2022-10-04T06:55:25.571Z,14.30
2022-10-04T07:00:31.083Z,23.00
2022-10-04T07:05:42.565Z,12.70
2022-10-04T07:10:53.313Z,13.50
2022-10-04T07:16:36.202Z,15.40
2022-10-04T07:22:05.760Z,8.60
2022-10-04T07:27:13.459Z,12.30
2022-10-04T07:32:24.727Z,16.90
2022-10-04T07:37:31.060Z,17.70
2022-10-04T07:42:45.093Z,14.20
2022-10-04T07:47:47.180Z,12.80
2022-10-04T07:53:05.907Z,9.40
2022-10-04T07:58:23.301Z,12.30
2022-10-04T08:03:39.397Z,9.20
2022-10-04T08:09:10.045Z,7.10
2022-10-04T08:14:33.795Z,16.20
2022-10-04T08:20:16.060Z,15.90
2022-10-04T08:25:33.431Z,14.10
2022-10-04T08:30:55.661Z,8.20
2022-10-04T08:36:12.135Z,8.90
2022-10-04T08:41:51.651Z,10.60
2022-10-04T08:47:21.847Z,9.60
2022-10-04T08:52:46.022Z,12.30
2022-10-04T08:58:05.390Z,8.70
2022-10-04T09:03:31.586Z,7.90
2022-10-04T09:08:56.659Z,8.30
2022-10-04T09:14:12.847Z,12.60
2022-10-04T09:19:40.633Z,15.40
2022-10-04T09:24:51.506Z,10.10
2022-10-04T09:30:19.763Z,6.90
2022-10-04T09:35:46.482Z,6.70
2022-10-04T09:41:03.858Z,13.50
2022-10-04T09:46:15.892Z,8.60
2022-10-04T09:51:45.348Z,12.30
2022-10-04T09:57:15.842Z,9.50
2022-10-04T10:02:44.814Z,4.30
2022-10-04T10:08:02.363Z,7.10
2022-10-04T10:19:07.267Z,9.40
2022-10-04T10:24:46.847Z,8.60
2022-10-04T10:29:59.423Z,4.80
2022-10-04T10:35:24.378Z,10.90
2022-10-04T10:40:41.019Z,9.90
2022-10-04T10:46:01.373Z,4.50
2022-10-04T10:51:23.434Z,9.60
2022-10-04T10:56:52.674Z,10.50
2022-10-04T11:01:57.979Z,10.50
2022-10-04T11:07:37.266Z,7.80
2022-10-04T11:12:41.956Z,6.10
2022-10-04T11:18:04.467Z,9.60
2022-10-04T11:23:46.001Z,12.00
2022-10-04T11:29:20.537Z,12.80
2022-10-04T11:34:38.223Z,12.80
2022-10-04T11:40:18.067Z,7.30
2022-10-04T11:45:33.378Z,9.10
2022-10-04T11:51:09.148Z,7.10
2022-10-04T11:56:29.864Z,10.40
2022-10-04T12:02:07.183Z,8.00
2022-10-04T12:07:42.096Z,6.60
2022-10-04T12:12:47.370Z,10.90
2022-10-04T12:18:07.675Z,10.90
2022-10-04T12:23:35.093Z,6.90
2022-10-04T12:29:25.826Z,5.60
2022-10-04T12:34:40.819Z,8.40
2022-10-04T12:40:10.341Z,5.10
2022-10-04T12:45:34.775Z,8.80
2022-10-04T12:51:04.727Z,4.70
2022-10-04T12:56:28.497Z,7.60
2022-10-04T13:01:55.448Z,5.10
2022-10-04T13:07:09.227Z,4.00
2022-10-04T13:12:24.548Z,6.60
2022-10-04T13:17:55.935Z,9.50
2022-10-04T13:23:02.208Z,6.70
2022-10-04T13:28:07.103Z,6.70
2022-10-04T13:33:36.176Z,6.20
2022-10-04T13:39:10.218Z,9.10
2022-10-04T13:44:26.457Z,4.90
2022-10-04T13:49:55.418Z,4.70
2022-10-04T13:55:45.030Z,7.00
2022-10-04T14:01:33.975Z,4.90
2022-10-04T14:07:15.585Z,6.70
2022-10-04T14:13:03.363Z,11.40
2022-10-04T14:18:47.441Z,7.20
2022-10-04T14:24:02.900Z,8.50
2022-10-04T14:29:30.557Z,6.90
2022-10-04T14:34:57.137Z,12.60
2022-10-04T14:40:11.064Z,10.90
2022-10-04T14:45:25.156Z,9.70
2022-10-04T14:50:44.339Z,11.00
2022-10-04T14:56:04.536Z,9.10
2022-10-04T15:01:27.108Z,10.00
2022-10-04T15:07:02.005Z,17.40
2022-10-04T15:12:40.773Z,7.40
2022-10-04T15:17:53.285Z,9.60
2022-10-04T15:23:16.050Z,12.30
2022-10-04T15:28:30.646Z,14.10
2022-10-04T15:33:39.827Z,9.40
2022-10-04T15:39:01.915Z,13.10
2022-10-04T15:44:14.741Z,17.90
2022-10-04T15:49:38.786Z,11.70
2022-10-04T15:55:06.392Z,13.60
2022-10-04T16:00:15.584Z,14.60
2022-10-04T16:05:44.556Z,12.70
2022-10-04T16:11:03.371Z,11.30
2022-10-04T16:16:17.759Z,22.00
2022-10-04T16:21:31.742Z,17.50
2022-10-04T16:26:34.024Z,20.60
2022-10-04T16:31:47.949Z,34.70
2022-10-04T16:37:24.228Z,66.30
2022-10-04T16:42:40.342Z,93.20
2022-10-04T16:47:48.201Z,95.10
2022-10-04T16:52:58.406Z,89.00
2022-10-04T16:58:28.550Z,67.50
2022-10-04T17:03:36.606Z,55.50
2022-10-04T17:09:00.507Z,59.20
2022-10-04T17:14:22.004Z,56.70
2022-10-04T17:19:51.702Z,58.10
2022-10-04T17:25:19.272Z,52.20
2022-10-04T17:30:27.437Z,40.30
2022-10-04T17:36:03.753Z,82.70
2022-10-04T17:41:14.416Z,110.70
2022-10-04T17:46:53.092Z,76.70
2022-10-04T17:52:15.726Z,75.20
2022-10-04T17:57:41.522Z,106.70
2022-10-04T18:03:04.057Z,91.10
2022-10-04T18:08:29.027Z,88.20
2022-10-04T18:13:39.615Z,75.10
2022-10-04T18:18:43.541Z,107.60
2022-10-04T18:24:01.379Z,194.10
2022-10-04T18:34:28.000Z,125.50
2022-10-04T18:39:43.981Z,114.90
2022-10-04T18:45:00.464Z,87.90
2022-10-04T18:50:29.370Z,72.40
2022-10-04T18:55:52.943Z,73.60
2022-10-04T19:01:26.825Z,62.50
2022-10-04T19:06:36.657Z,66.80
2022-10-04T19:12:11.434Z,75.70
2022-10-04T19:17:37.275Z,86.20
2022-10-04T19:22:51.528Z,77.00
2022-10-04T19:28:13.646Z,84.20
2022-10-04T19:33:30.216Z,85.50
2022-10-04T19:38:41.355Z,81.40
2022-10-04T19:43:58.972Z,81.40
2022-10-04T19:49:02.315Z,91.90
2022-10-04T19:54:19.231Z,90.80
2022-10-04T19:59:35.947Z,82.40
2022-10-04T20:04:38.639Z,90.10
2022-10-04T20:09:48.050Z,98.80
2022-10-04T20:14:49.997Z,108.90
2022-10-04T20:19:51.830Z,106.10
2022-10-04T20:24:54.061Z,95.50
2022-10-04T20:30:04.137Z,90.30
2022-10-04T20:35:11.377Z,90.80
2022-10-04T20:40:22.043Z,90.00
2022-10-04T20:45:25.806Z,123.80
2022-10-04T20:50:46.431Z,107.60
2022-10-04T20:55:53.844Z,108.10
2022-10-04T21:00:59.581Z,105.40
2022-10-04T21:06:15.798Z,114.00
2022-10-04T21:11:21.395Z,102.00
2022-10-04T21:16:57.467Z,100.20
2022-10-04T21:27:09.075Z,104.40
2022-10-04T21:32:10.835Z,94.20
2022-10-04T21:37:12.733Z,103.10
2022-10-04T21:42:14.737Z,90.30
2022-10-04T21:47:16.713Z,98.50
2022-10-04T21:52:18.937Z,84.50
2022-10-04T21:57:22.202Z,90.50
2022-10-04T22:02:24.102Z,85.80
2022-10-04T22:07:26.143Z,94.70
2022-10-04T22:12:30.111Z,94.80
2022-10-04T22:17:31.995Z,98.40
2022-10-04T22:22:37.566Z,91.80
2022-10-04T22:32:46.431Z,87.30
2022-10-04T22:37:49.339Z,89.40
2022-10-04T22:42:54.245Z,85.00
2022-10-04T22:47:59.460Z,91.60
2022-10-04T22:53:22.252Z,88.40
2022-10-04T22:58:24.449Z,88.40
2022-10-04T23:03:31.962Z,87.40
2022-10-04T23:08:57.517Z,84.30
2022-10-04T23:14:05.879Z,84.90
2022-10-04T23:19:18.966Z,76.60
2022-10-04T23:24:23.094Z,77.80
2022-10-04T23:29:33.583Z,73.80
2022-10-04T23:34:37.980Z,82.20
2022-10-04T23:39:40.406Z,93.50
2022-10-04T23:44:42.580Z,72.40
2022-10-04T23:49:50.042Z,70.10
2022-10-04T23:54:54.429Z,73.30
2022-10-04T23:59:59.526Z,73.60
